Terminal Aerodrome Forecast
Issued by NWS

Home | Current Version | Previous Version | Graphics & Text | Print | Product List | Glossary Off
Versions: 1 2 3 4 5 6 7 8 9 10 11 12 13

000
FTUS43 KABR 201121
TAFPIR
TAF
KPIR 201121Z 2012/2112 27006KT P6SM OVC070
     FM210000 32005KT P6SM -RASN OVC070
     FM210100 32005KT P6SM -SNRA OVC060
     FM210200 32004KT P6SM -SN OVC040
     FM210800 33005KT P6SM -SN OVC025=

USA.gov is the U.S. government's official web portal to all federal, state and local government web resources and services.